createdAt,value
2023-02-11T00:02:16.531Z,26.90
2023-02-11T00:04:45.137Z,34.90
2023-02-11T00:07:13.732Z,32.00
2023-02-11T00:09:42.613Z,31.90
2023-02-11T00:12:11.100Z,28.70
2023-02-11T00:14:39.890Z,33.20
2023-02-11T00:17:08.688Z,28.90
2023-02-11T00:19:37.576Z,26.70
2023-02-11T00:22:06.857Z,27.80
2023-02-11T00:24:36.997Z,30.40
2023-02-11T00:27:05.660Z,26.80
2023-02-11T00:29:34.359Z,31.60
2023-02-11T00:32:05.890Z,28.80
2023-02-11T00:34:35.607Z,32.90
2023-02-11T00:37:04.849Z,26.70
2023-02-11T00:39:33.307Z,31.80
2023-02-11T00:42:01.815Z,32.60
2023-02-11T00:44:30.575Z,31.10
2023-02-11T00:46:59.549Z,30.00
2023-02-11T00:49:28.449Z,30.40
2023-02-11T00:51:57.122Z,27.40
2023-02-11T00:54:26.894Z,28.10
2023-02-11T00:56:57.247Z,41.70
2023-02-11T00:59:26.348Z,32.70
2023-02-11T01:01:55.149Z,34.70
2023-02-11T01:04:23.720Z,34.90
2023-02-11T01:06:54.085Z,32.60
2023-02-11T01:09:22.629Z,33.30
2023-02-11T01:11:51.417Z,35.50
2023-02-11T01:14:20.113Z,29.20
2023-02-11T01:16:49.008Z,34.70
2023-02-11T01:19:17.681Z,34.50
2023-02-11T01:21:47.716Z,37.50
2023-02-11T01:24:16.480Z,29.70
2023-02-11T01:26:46.028Z,36.20
2023-02-11T01:29:14.594Z,32.90
2023-02-11T01:31:43.366Z,31.20
2023-02-11T01:34:12.250Z,30.40
2023-02-11T01:36:41.667Z,36.20
2023-02-11T01:39:10.556Z,31.50
2023-02-11T01:41:40.253Z,31.40
2023-02-11T01:44:33.936Z,33.30
2023-02-11T01:47:05.183Z,27.80
2023-02-11T01:50:00.175Z,32.90
2023-02-11T01:52:30.800Z,33.50
2023-02-11T01:55:24.167Z,33.80
2023-02-11T01:57:56.767Z,32.10
2023-02-11T02:00:38.452Z,33.80
2023-02-11T02:03:16.870Z,38.30
2023-02-11T02:05:53.252Z,35.00
2023-02-11T02:08:41.771Z,27.00
2023-02-11T02:11:10.747Z,34.30
2023-02-11T02:13:39.554Z,25.80
2023-02-11T02:16:13.489Z,27.90
2023-02-11T02:19:00.684Z,24.10
2023-02-11T02:21:45.831Z,27.20
2023-02-11T02:24:25.295Z,26.00
2023-02-11T02:27:04.822Z,39.10
2023-02-11T02:30:01.245Z,25.60
2023-02-11T02:32:48.892Z,34.30
2023-02-11T02:35:49.024Z,25.30
2023-02-11T02:38:25.567Z,27.40
2023-02-11T02:41:07.155Z,28.60
2023-02-11T02:43:37.983Z,28.80
2023-02-11T02:46:27.757Z,28.80
2023-02-11T02:48:57.490Z,26.50
2023-02-11T02:51:49.618Z,28.20
2023-02-11T02:54:37.560Z,28.90
2023-02-11T02:57:27.752Z,32.30
2023-02-11T03:00:19.772Z,24.80
2023-02-11T03:03:14.478Z,30.50
2023-02-11T03:05:55.774Z,32.50
2023-02-11T03:08:25.991Z,30.90
2023-02-11T03:10:55.786Z,20.80
2023-02-11T03:13:27.804Z,23.50
2023-02-11T03:15:58.119Z,25.10
2023-02-11T03:18:28.370Z,26.30
2023-02-11T03:20:58.035Z,26.50
2023-02-11T03:23:33.881Z,29.40
2023-02-11T03:26:19.354Z,24.60
2023-02-11T03:29:05.340Z,25.40
2023-02-11T03:31:59.480Z,20.20
2023-02-11T03:34:44.380Z,24.30
2023-02-11T03:37:20.736Z,25.40
2023-02-11T03:39:57.013Z,26.40
2023-02-11T03:42:28.552Z,27.80
2023-02-11T03:45:02.146Z,22.60
2023-02-11T03:47:32.428Z,24.90
2023-02-11T03:50:04.785Z,24.40
2023-02-11T03:52:34.862Z,25.10
2023-02-11T03:55:15.739Z,26.30
2023-02-11T03:57:44.738Z,27.00
2023-02-11T04:00:14.372Z,24.40
2023-02-11T04:02:43.052Z,22.20
2023-02-11T04:05:14.722Z,21.40
2023-02-11T04:07:43.259Z,27.00
2023-02-11T04:10:12.811Z,24.70
2023-02-11T04:12:41.351Z,20.60
2023-02-11T04:15:10.455Z,25.60
2023-02-11T04:17:42.367Z,30.10
2023-02-11T04:20:11.908Z,29.80
2023-02-11T04:22:40.738Z,28.00
2023-02-11T04:25:10.957Z,26.40
2023-02-11T04:27:39.408Z,23.50
2023-02-11T04:30:09.396Z,25.90
2023-02-11T04:32:37.908Z,23.20
2023-02-11T04:35:08.143Z,21.20
2023-02-11T04:37:36.605Z,28.90
2023-02-11T04:40:05.796Z,25.50
2023-02-11T04:42:34.496Z,23.10
2023-02-11T04:45:03.455Z,26.80
2023-02-11T04:47:31.976Z,28.60
2023-02-11T04:50:00.755Z,30.90
2023-02-11T04:52:29.632Z,30.00
2023-02-11T04:54:58.215Z,22.30
2023-02-11T04:57:26.901Z,24.30
2023-02-11T04:59:55.685Z,22.50
2023-02-11T05:02:24.278Z,27.40
2023-02-11T05:04:53.166Z,28.20
2023-02-11T05:07:21.966Z,24.50
2023-02-11T05:09:50.538Z,34.60
2023-02-11T05:12:19.222Z,24.90
2023-02-11T05:14:48.222Z,29.80
2023-02-11T05:17:16.825Z,25.40
2023-02-11T05:19:45.491Z,27.10
2023-02-11T05:22:15.006Z,26.60
2023-02-11T05:24:43.662Z,27.10
2023-02-11T05:27:12.568Z,29.00
2023-02-11T05:29:41.443Z,27.50
2023-02-11T05:32:10.028Z,32.40
2023-02-11T05:34:38.724Z,24.70
2023-02-11T05:37:07.437Z,27.90
2023-02-11T05:39:36.203Z,25.10
2023-02-11T05:42:05.216Z,30.70
2023-02-11T05:44:33.678Z,25.80
2023-02-11T05:47:02.347Z,32.70
2023-02-11T05:49:31.346Z,25.80
2023-02-11T05:52:00.123Z,26.80
2023-02-11T05:54:28.615Z,31.20
2023-02-11T05:56:57.287Z,21.40
2023-02-11T05:59:26.692Z,25.60
2023-02-11T06:01:55.286Z,26.50
2023-02-11T06:04:23.965Z,26.50
2023-02-11T06:06:52.765Z,24.30
2023-02-11T06:09:21.560Z,23.50
2023-02-11T06:11:51.464Z,30.10
2023-02-11T06:14:20.151Z,23.90
2023-02-11T06:16:48.944Z,28.00
2023-02-11T06:19:17.823Z,24.40
2023-02-11T06:21:46.307Z,28.10
2023-02-11T06:24:16.269Z,30.30
2023-02-11T06:26:44.891Z,27.60
2023-02-11T06:29:14.403Z,24.00
2023-02-11T06:31:42.941Z,23.90
2023-02-11T06:34:11.785Z,25.90
2023-02-11T06:36:41.375Z,26.70
2023-02-11T06:39:12.489Z,22.20
2023-02-11T06:41:41.214Z,22.00
2023-02-11T06:44:09.685Z,26.10
2023-02-11T06:46:38.440Z,25.80
2023-02-11T06:49:07.266Z,24.20
2023-02-11T06:51:36.264Z,19.70
2023-02-11T06:54:05.728Z,24.90
2023-02-11T06:56:35.204Z,21.90
2023-02-11T06:59:03.844Z,23.50
2023-02-11T07:01:32.608Z,25.10
2023-02-11T07:04:01.327Z,22.40
2023-02-11T07:06:29.802Z,24.30
2023-02-11T07:08:58.600Z,23.90
2023-02-11T07:11:29.444Z,20.20
2023-02-11T07:14:02.167Z,27.50
2023-02-11T07:16:31.130Z,27.00
2023-02-11T07:19:00.007Z,19.70
2023-02-11T07:21:28.678Z,21.50
2023-02-11T07:23:57.355Z,23.50
2023-02-11T07:26:29.521Z,20.70
2023-02-11T07:28:58.107Z,26.30
2023-02-11T07:31:28.551Z,20.30
2023-02-11T07:34:00.242Z,24.80
2023-02-11T07:36:30.729Z,24.80
2023-02-11T07:39:00.555Z,21.80
2023-02-11T07:41:29.233Z,22.90
2023-02-11T07:43:57.791Z,23.70
2023-02-11T07:46:28.487Z,23.40
2023-02-11T07:48:57.214Z,23.40
2023-02-11T07:51:30.103Z,22.90
2023-02-11T07:54:00.177Z,22.30
2023-02-11T07:56:29.347Z,26.40
2023-02-11T07:59:01.998Z,27.30
2023-02-11T08:01:31.195Z,24.70
2023-02-11T08:04:01.130Z,27.20
2023-02-11T08:06:32.365Z,26.00
2023-02-11T08:09:06.461Z,21.40
2023-02-11T08:11:35.163Z,24.60
2023-02-11T08:14:03.857Z,25.20
2023-02-11T08:16:34.623Z,23.50
2023-02-11T08:19:06.416Z,23.70
2023-02-11T08:21:35.114Z,27.40
2023-02-11T08:24:04.764Z,24.50
2023-02-11T08:26:35.324Z,24.70
2023-02-11T08:29:09.377Z,25.80
2023-02-11T08:31:41.064Z,24.10
2023-02-11T08:34:11.849Z,21.60
2023-02-11T08:36:42.883Z,26.50
2023-02-11T08:39:19.613Z,25.00
2023-02-11T08:41:51.670Z,22.90
2023-02-11T08:44:22.164Z,21.50
2023-02-11T08:46:52.332Z,20.50
2023-02-11T08:49:21.571Z,23.50
2023-02-11T08:51:50.670Z,23.50
2023-02-11T08:54:19.366Z,25.50
2023-02-11T08:56:53.478Z,24.00
2023-02-11T08:59:23.157Z,30.20
2023-02-11T09:01:55.458Z,22.00
2023-02-11T09:04:25.517Z,21.30
2023-02-11T09:06:54.165Z,23.10
2023-02-11T09:09:23.473Z,21.00
2023-02-11T09:11:52.020Z,20.80
2023-02-11T09:14:22.979Z,21.90
2023-02-11T09:16:52.214Z,23.10
2023-02-11T09:19:21.784Z,24.00
2023-02-11T09:21:50.797Z,22.40
2023-02-11T09:24:19.873Z,18.90
2023-02-11T09:26:50.524Z,22.70
2023-02-11T09:29:19.375Z,26.30
2023-02-11T09:31:48.178Z,23.30
2023-02-11T09:34:16.860Z,22.70
2023-02-11T09:36:45.532Z,22.40
2023-02-11T09:39:17.806Z,22.70
2023-02-11T09:41:56.320Z,22.60
2023-02-11T09:44:30.286Z,24.40
2023-02-11T09:47:06.100Z,25.50
2023-02-11T09:49:50.134Z,25.10
2023-02-11T09:52:29.048Z,26.40
2023-02-11T09:55:22.416Z,24.40
2023-02-11T09:57:51.308Z,25.10
2023-02-11T10:00:31.075Z,21.30
2023-02-11T10:02:59.742Z,23.50
2023-02-11T10:05:52.253Z,24.00
2023-02-11T10:08:42.521Z,23.10
2023-02-11T10:11:48.544Z,24.30
2023-02-11T10:15:04.837Z,23.30
2023-02-11T10:17:37.308Z,23.00
2023-02-11T10:20:25.355Z,24.40
2023-02-11T10:22:56.078Z,23.40
2023-02-11T10:25:35.470Z,22.60
2023-02-11T10:28:20.376Z,23.70
2023-02-11T10:30:52.392Z,22.60
2023-02-11T10:33:28.859Z,24.50
2023-02-11T10:35:57.312Z,23.00
2023-02-11T10:38:26.159Z,26.40
2023-02-11T10:40:54.678Z,25.30
2023-02-11T10:43:27.744Z,24.30
2023-02-11T10:45:57.265Z,25.60
2023-02-11T10:48:50.956Z,22.20
2023-02-11T10:51:35.686Z,20.90
2023-02-11T10:54:04.591Z,20.20
2023-02-11T10:56:36.578Z,24.30
2023-02-11T10:59:21.145Z,28.00
2023-02-11T11:05:22.848Z,25.40
2023-02-11T11:07:56.870Z,29.60
2023-02-11T11:10:47.494Z,26.60
2023-02-11T11:13:33.540Z,21.80
2023-02-11T11:16:14.252Z,19.70
2023-02-11T11:18:45.722Z,19.70
2023-02-11T11:21:24.934Z,19.50
2023-02-11T11:24:02.349Z,20.80
2023-02-11T11:26:43.343Z,22.90
2023-02-11T11:29:21.203Z,25.00
2023-02-11T11:32:04.964Z,22.60
2023-02-11T11:34:42.328Z,27.80
2023-02-11T11:37:24.542Z,23.40
2023-02-11T11:40:21.373Z,23.30
2023-02-11T11:43:23.392Z,21.90
2023-02-11T11:46:00.255Z,22.40
2023-02-11T11:48:41.039Z,23.20
2023-02-11T11:51:14.270Z,25.80
2023-02-11T11:53:59.849Z,20.30
2023-02-11T11:56:34.608Z,19.50
2023-02-11T11:59:14.434Z,14.60
2023-02-11T12:01:52.363Z,22.50
2023-02-11T12:04:40.979Z,22.50
2023-02-11T12:07:31.378Z,23.90
2023-02-11T12:10:18.519Z,23.00
2023-02-11T12:12:56.855Z,21.70
2023-02-11T12:15:34.499Z,18.80
2023-02-11T12:18:21.611Z,21.20
2023-02-11T12:20:53.174Z,19.50
2023-02-11T12:23:46.739Z,25.40
2023-02-11T12:26:22.601Z,20.90
2023-02-11T12:29:32.560Z,21.40
2023-02-11T12:32:30.959Z,23.90
2023-02-11T12:35:24.084Z,19.60
2023-02-11T12:38:22.063Z,18.40
2023-02-11T12:41:16.282Z,25.10
2023-02-11T12:43:45.744Z,20.50
2023-02-11T12:46:29.289Z,19.70
2023-02-11T12:49:03.199Z,20.60
2023-02-11T12:51:42.901Z,20.40
2023-02-11T12:54:40.794Z,22.40
2023-02-11T12:57:21.680Z,23.30
2023-02-11T13:00:15.962Z,19.50
2023-02-11T13:03:10.445Z,25.10
2023-02-11T13:06:10.482Z,24.60
2023-02-11T13:08:46.790Z,24.80
2023-02-11T13:11:23.727Z,21.90
2023-02-11T13:13:57.722Z,23.00
2023-02-11T13:16:30.060Z,17.00
2023-02-11T13:19:18.535Z,19.70
2023-02-11T13:22:03.320Z,22.20
2023-02-11T13:24:44.805Z,21.90
2023-02-11T13:27:52.184Z,23.80
2023-02-11T13:30:35.963Z,19.10
2023-02-11T13:33:07.169Z,22.80
2023-02-11T13:35:41.088Z,22.60
2023-02-11T13:38:20.515Z,23.90
2023-02-11T13:41:15.370Z,25.00
2023-02-11T13:43:45.494Z,18.90
2023-02-11T13:46:16.229Z,25.60
2023-02-11T13:48:53.630Z,20.20
2023-02-11T13:51:49.087Z,22.60
2023-02-11T13:54:29.801Z,22.50
2023-02-11T13:57:21.055Z,23.70
2023-02-11T13:59:55.480Z,23.20
2023-02-11T14:02:51.778Z,21.80
2023-02-11T14:05:41.869Z,25.30
2023-02-11T14:08:29.936Z,20.20
2023-02-11T14:11:25.896Z,23.90
2023-02-11T14:13:55.599Z,19.40
2023-02-11T14:16:38.004Z,22.10
2023-02-11T14:19:09.407Z,21.90
2023-02-11T14:21:41.382Z,23.90
2023-02-11T14:24:13.761Z,24.50
2023-02-11T14:27:00.151Z,21.30
2023-02-11T14:29:35.617Z,20.70
2023-02-11T14:32:38.500Z,19.70
2023-02-11T14:35:13.505Z,18.80
2023-02-11T14:38:05.862Z,19.40
2023-02-11T14:40:53.356Z,23.40
2023-02-11T14:43:29.100Z,18.30
2023-02-11T14:45:59.597Z,23.30
2023-02-11T14:48:33.206Z,20.50
2023-02-11T14:51:18.140Z,22.20
2023-02-11T14:53:50.736Z,23.50
2023-02-11T14:56:34.756Z,16.10
2023-02-11T14:59:04.982Z,21.90
2023-02-11T15:01:38.293Z,20.30
2023-02-11T15:04:32.014Z,21.40
2023-02-11T15:07:07.170Z,19.10
2023-02-11T15:09:47.673Z,15.60
2023-02-11T15:12:24.602Z,18.20
2023-02-11T15:14:59.395Z,21.20
2023-02-11T15:17:32.964Z,20.70
2023-02-11T15:20:03.711Z,22.80
2023-02-11T15:22:37.901Z,22.80
2023-02-11T15:25:15.505Z,18.60
2023-02-11T15:28:13.561Z,20.30
2023-02-11T15:30:42.982Z,18.30
2023-02-11T15:33:26.263Z,23.20
2023-02-11T15:35:57.186Z,19.00
2023-02-11T15:38:30.685Z,18.90
2023-02-11T15:41:13.348Z,16.90
2023-02-11T15:43:52.230Z,16.60
2023-02-11T15:46:24.213Z,24.80
2023-02-11T15:48:56.249Z,19.00
2023-02-11T15:51:36.253Z,21.50
2023-02-11T15:54:11.296Z,20.80
2023-02-11T15:56:45.264Z,20.50
2023-02-11T15:59:27.098Z,22.30
2023-02-11T16:01:59.323Z,17.90
2023-02-11T16:04:29.120Z,21.40
2023-02-11T16:06:59.813Z,25.60
2023-02-11T16:09:35.896Z,21.20
2023-02-11T16:12:28.112Z,17.80
2023-02-11T16:15:00.962Z,20.20
2023-02-11T16:17:33.025Z,21.70
2023-02-11T16:20:05.610Z,19.00
2023-02-11T16:22:39.012Z,20.40
2023-02-11T16:25:24.984Z,19.10
2023-02-11T16:27:56.206Z,17.40
2023-02-11T16:30:38.640Z,22.00
2023-02-11T16:33:12.220Z,24.40
2023-02-11T16:35:42.995Z,18.90
2023-02-11T16:38:13.764Z,22.90
2023-02-11T16:40:46.428Z,22.30
2023-02-11T16:43:25.113Z,24.00
2023-02-11T16:45:54.829Z,22.00
2023-02-11T16:48:26.556Z,24.50
2023-02-11T16:51:00.480Z,25.40
2023-02-11T16:53:30.894Z,21.30
2023-02-11T16:56:07.160Z,25.70
2023-02-11T16:58:38.085Z,22.50
2023-02-11T17:01:10.582Z,21.80
2023-02-11T17:03:44.452Z,20.20
2023-02-11T17:06:14.885Z,22.80
2023-02-11T17:08:46.013Z,19.20
2023-02-11T17:11:18.190Z,22.70
2023-02-11T17:13:48.872Z,21.00
2023-02-11T17:16:21.946Z,19.70
2023-02-11T17:18:52.238Z,20.70
2023-02-11T17:21:23.893Z,20.50
2023-02-11T17:23:54.743Z,20.80
2023-02-11T17:26:27.482Z,17.50
2023-02-11T17:29:01.556Z,22.40
2023-02-11T17:31:31.637Z,21.70
2023-02-11T17:34:01.714Z,16.50
2023-02-11T17:36:36.316Z,18.80
2023-02-11T17:39:08.303Z,21.60
2023-02-11T17:41:42.040Z,19.50
2023-02-11T17:44:17.306Z,19.20
2023-02-11T17:46:50.391Z,17.30
2023-02-11T17:49:21.347Z,18.40
2023-02-11T17:51:53.532Z,13.80
2023-02-11T17:54:24.368Z,20.60
2023-02-11T17:56:58.711Z,17.50
2023-02-11T17:59:36.765Z,18.10
2023-02-11T18:02:08.464Z,21.90
2023-02-11T18:07:25.805Z,20.60
2023-02-11T18:09:58.247Z,19.60
2023-02-11T18:12:28.570Z,21.40
2023-02-11T18:14:59.288Z,19.40
2023-02-11T18:17:29.685Z,17.90
2023-02-11T18:19:59.437Z,21.30
2023-02-11T18:22:33.975Z,18.60
2023-02-11T18:25:05.687Z,24.50
2023-02-11T18:27:37.582Z,20.00
2023-02-11T18:30:09.151Z,22.20
2023-02-11T18:32:40.699Z,24.10
2023-02-11T18:35:14.946Z,18.60
2023-02-11T18:37:45.639Z,16.70
2023-02-11T18:40:16.404Z,20.90
2023-02-11T18:42:49.835Z,18.40
2023-02-11T18:45:23.416Z,19.20
2023-02-11T18:47:53.912Z,19.20
2023-02-11T18:50:24.630Z,17.70
2023-02-11T18:52:55.249Z,19.90
2023-02-11T18:55:26.918Z,20.50
2023-02-11T18:57:57.832Z,25.60
2023-02-11T19:00:32.501Z,18.90
2023-02-11T19:03:03.333Z,21.20
2023-02-11T19:05:49.844Z,22.10
2023-02-11T19:08:24.954Z,22.80
2023-02-11T19:10:57.506Z,17.10
2023-02-11T19:13:27.874Z,21.00
2023-02-11T19:15:58.895Z,16.40
2023-02-11T19:18:30.240Z,20.40
2023-02-11T19:21:09.139Z,17.30
2023-02-11T19:23:41.663Z,23.80
2023-02-11T19:26:12.781Z,25.20
2023-02-11T19:28:49.048Z,21.90
2023-02-11T19:31:20.748Z,21.40
2023-02-11T19:33:53.730Z,20.80
2023-02-11T19:36:24.958Z,26.10
2023-02-11T19:38:55.015Z,25.30
2023-02-11T19:41:27.673Z,22.00
2023-02-11T19:43:58.154Z,21.20
2023-02-11T19:46:31.479Z,24.80
2023-02-11T19:49:02.952Z,24.30
2023-02-11T19:51:46.528Z,20.60
2023-02-11T19:54:24.110Z,23.10
2023-02-11T19:56:58.770Z,17.70
2023-02-11T19:59:29.725Z,17.10
2023-02-11T20:02:02.786Z,17.00
2023-02-11T20:04:34.436Z,21.20
2023-02-11T20:07:06.331Z,18.30
2023-02-11T20:09:37.256Z,19.40
2023-02-11T20:12:08.373Z,17.80
2023-02-11T20:14:39.468Z,19.30
2023-02-11T20:17:09.882Z,21.80
2023-02-11T20:19:40.690Z,22.20
2023-02-11T20:22:12.195Z,22.40
2023-02-11T20:24:45.971Z,23.10
2023-02-11T20:27:17.330Z,22.80
2023-02-11T20:29:49.747Z,21.00
2023-02-11T20:32:23.178Z,17.90
2023-02-11T20:34:57.767Z,22.20
2023-02-11T20:37:29.446Z,19.60
2023-02-11T20:40:00.853Z,23.10
2023-02-11T20:42:31.420Z,18.70
2023-02-11T20:45:05.604Z,23.50
2023-02-11T20:47:38.815Z,20.30
2023-02-11T20:50:12.252Z,28.00
2023-02-11T20:52:44.397Z,26.00
2023-02-11T20:55:16.366Z,24.90
2023-02-11T20:57:49.792Z,23.70
2023-02-11T21:00:23.638Z,22.60
2023-02-11T21:02:55.418Z,23.60
2023-02-11T21:05:27.901Z,27.70
2023-02-11T21:07:58.833Z,22.80
2023-02-11T21:10:31.709Z,19.60
2023-02-11T21:13:04.401Z,25.90
2023-02-11T21:15:38.010Z,22.70
2023-02-11T21:18:09.519Z,23.90
2023-02-11T21:20:40.672Z,25.90
2023-02-11T21:23:11.817Z,25.00
2023-02-11T21:25:42.072Z,27.60
2023-02-11T21:28:13.629Z,25.30
2023-02-11T21:30:44.031Z,27.10
2023-02-11T21:33:13.857Z,22.40
2023-02-11T21:35:43.459Z,27.00
2023-02-11T21:38:15.447Z,25.50
2023-02-11T21:40:45.994Z,26.90
2023-02-11T21:43:16.605Z,25.40
2023-02-11T21:45:49.910Z,16.90
2023-02-11T21:48:20.727Z,22.80
2023-02-11T21:50:51.522Z,23.30
2023-02-11T21:53:20.785Z,21.30
2023-02-11T21:55:51.781Z,23.00
2023-02-11T21:58:21.278Z,26.70
2023-02-11T22:00:53.330Z,23.70
2023-02-11T22:03:22.136Z,23.90
2023-02-11T22:05:54.335Z,22.20
2023-02-11T22:08:24.919Z,26.30
2023-02-11T22:10:54.372Z,24.10
2023-02-11T22:13:22.999Z,24.20
2023-02-11T22:15:59.938Z,29.10
2023-02-11T22:18:30.553Z,26.40
2023-02-11T22:21:04.223Z,26.90
2023-02-11T22:23:36.685Z,20.80
2023-02-11T22:26:08.340Z,24.90
2023-02-11T22:28:39.318Z,25.60
2023-02-11T22:31:12.295Z,25.80
2023-02-11T22:33:41.475Z,23.40
2023-02-11T22:36:17.573Z,23.20
2023-02-11T22:38:46.418Z,25.60
2023-02-11T22:41:15.307Z,23.90
2023-02-11T22:43:44.601Z,18.10
2023-02-11T22:46:16.261Z,26.40
2023-02-11T22:48:45.435Z,24.70
2023-02-11T22:51:17.084Z,26.80
2023-02-11T22:53:50.299Z,24.80
2023-02-11T22:56:19.382Z,23.10
2023-02-11T22:58:49.015Z,28.20
2023-02-11T23:01:18.655Z,26.30
2023-02-11T23:03:47.505Z,25.40
2023-02-11T23:06:16.906Z,24.80
2023-02-11T23:08:45.699Z,26.00
2023-02-11T23:11:20.635Z,22.60
2023-02-11T23:13:51.239Z,29.20
2023-02-11T23:16:23.353Z,25.00
2023-02-11T23:18:53.259Z,24.00
2023-02-11T23:21:24.402Z,27.60
2023-02-11T23:23:58.294Z,24.40
2023-02-11T23:26:27.882Z,24.20
2023-02-11T23:28:58.479Z,26.80
2023-02-11T23:31:30.810Z,26.30
2023-02-11T23:34:00.277Z,24.00
2023-02-11T23:36:29.188Z,31.80
2023-02-11T23:38:57.989Z,27.20
2023-02-11T23:41:26.643Z,27.40
2023-02-11T23:43:58.238Z,27.20
2023-02-11T23:46:27.835Z,25.50
2023-02-11T23:48:56.509Z,23.70
2023-02-11T23:51:25.617Z,23.80
2023-02-11T23:53:56.386Z,26.50
2023-02-11T23:56:28.588Z,25.20
2023-02-11T23:58:59.870Z,20.80
